createdAt,value
2024-04-21T00:02:04.333Z,24.05
2024-04-21T00:04:32.520Z,24.05
2024-04-21T00:07:00.951Z,24.05
2024-04-21T00:09:28.915Z,24.05
2024-04-21T00:11:56.841Z,24.05
2024-04-21T00:14:24.740Z,24.05
2024-04-21T00:16:53.107Z,24.04
2024-04-21T00:19:21.317Z,24.04
2024-04-21T00:21:49.354Z,24.03
2024-04-21T00:24:17.319Z,24.02
2024-04-21T00:26:45.329Z,24.03
2024-04-21T00:29:13.332Z,24.03
2024-04-21T00:31:41.481Z,24.02
2024-04-21T00:34:10.053Z,24.02
2024-04-21T00:36:40.190Z,24.02
2024-04-21T00:39:08.327Z,24.01
2024-04-21T00:41:36.466Z,24.01
2024-04-21T00:44:04.455Z,24.00
2024-04-21T00:46:32.373Z,24.00
2024-04-21T00:49:00.428Z,24.00
2024-04-21T00:51:28.335Z,23.99
2024-04-21T00:53:56.298Z,23.99
2024-04-21T00:56:24.296Z,23.99
2024-04-21T00:58:53.548Z,23.99
2024-04-21T01:01:24.561Z,23.98
2024-04-21T01:03:53.525Z,23.98
2024-04-21T01:06:21.495Z,23.97
2024-04-21T01:08:49.488Z,23.96
2024-04-21T01:11:20.870Z,23.96
2024-04-21T01:13:48.860Z,23.97
2024-04-21T01:16:17.323Z,23.96
2024-04-21T01:18:45.801Z,23.96
2024-04-21T01:21:13.943Z,23.95
2024-04-21T01:23:41.910Z,23.95
2024-04-21T01:26:09.784Z,23.95
2024-04-21T01:28:37.704Z,23.94
2024-04-21T01:31:05.930Z,23.94
2024-04-21T01:33:33.951Z,23.93
2024-04-21T01:36:01.884Z,23.93
2024-04-21T01:38:29.901Z,23.92
2024-04-21T01:40:57.960Z,23.92
2024-04-21T01:43:26.024Z,23.92
2024-04-21T01:45:54.333Z,23.91
2024-04-21T01:48:22.267Z,23.91
2024-04-21T01:50:50.210Z,23.91
2024-04-21T01:53:19.500Z,23.91
2024-04-21T01:55:47.413Z,23.90
2024-04-21T01:58:15.349Z,23.90
2024-04-21T02:00:43.599Z,23.90
2024-04-21T02:03:11.691Z,23.89
2024-04-21T02:05:39.644Z,23.89
2024-04-21T02:08:08.137Z,23.89
2024-04-21T02:10:36.055Z,23.89
2024-04-21T02:13:04.235Z,23.88
2024-04-21T02:15:32.095Z,23.87
2024-04-21T02:18:00.040Z,23.88
2024-04-21T02:20:28.075Z,23.87
2024-04-21T02:22:55.963Z,23.87
2024-04-21T02:25:24.075Z,23.87
2024-04-21T02:27:52.194Z,23.87
2024-04-21T02:30:21.890Z,23.86
2024-04-21T02:32:51.217Z,23.85
2024-04-21T02:35:19.177Z,23.85
2024-04-21T02:37:47.147Z,23.85
2024-04-21T02:40:15.309Z,23.84
2024-04-21T02:42:43.340Z,23.84
2024-04-21T02:45:11.796Z,23.84
2024-04-21T02:47:39.748Z,23.83
2024-04-21T02:50:07.874Z,23.83
2024-04-21T02:52:35.842Z,23.83
2024-04-21T02:55:03.985Z,23.83
2024-04-21T02:57:33.052Z,23.80
2024-04-21T03:00:00.928Z,23.83
2024-04-21T03:02:29.268Z,23.82
2024-04-21T03:04:57.264Z,23.82
2024-04-21T03:07:25.199Z,23.82
2024-04-21T03:09:53.190Z,23.82
2024-04-21T03:12:21.265Z,23.82
2024-04-21T03:14:49.201Z,23.82
2024-04-21T03:17:18.508Z,23.81
2024-04-21T03:19:48.757Z,23.81
2024-04-21T03:22:17.149Z,23.80
2024-04-21T03:24:45.166Z,23.80
2024-04-21T03:27:13.070Z,23.79
2024-04-21T03:29:41.193Z,23.78
2024-04-21T03:32:09.240Z,23.78
2024-04-21T03:34:37.271Z,23.79
2024-04-21T03:37:05.341Z,23.79
2024-04-21T03:39:33.576Z,23.78
2024-04-21T03:42:01.581Z,23.79
2024-04-21T03:44:29.574Z,23.80
2024-04-21T03:46:57.813Z,23.80
2024-04-21T03:49:25.827Z,23.81
2024-04-21T03:51:53.986Z,23.83
2024-04-21T03:54:22.054Z,23.87
2024-04-21T03:56:49.915Z,23.91
2024-04-21T03:59:18.094Z,23.99
2024-04-21T04:01:46.554Z,24.06
2024-04-21T04:04:14.769Z,24.16
2024-04-21T04:06:42.714Z,24.26
2024-04-21T04:09:10.863Z,24.35
2024-04-21T04:11:38.921Z,24.47
2024-04-21T04:14:06.913Z,24.57
2024-04-21T04:16:34.872Z,24.67
2024-04-21T04:19:03.033Z,24.75
2024-04-21T04:21:32.360Z,24.82
2024-04-21T04:24:00.235Z,24.87
2024-04-21T04:26:28.379Z,24.93
2024-04-21T04:28:56.248Z,24.98
2024-04-21T04:31:24.337Z,25.05
2024-04-21T04:33:52.924Z,25.11
2024-04-21T04:36:21.268Z,25.15
2024-04-21T04:38:49.243Z,25.17
2024-04-21T04:41:17.224Z,25.20
2024-04-21T04:43:45.309Z,25.20
2024-04-21T04:46:13.282Z,25.20
2024-04-21T04:48:41.278Z,25.19
2024-04-21T04:51:09.273Z,25.17
2024-04-21T04:53:37.308Z,25.14
2024-04-21T04:56:05.557Z,25.15
2024-04-21T04:58:33.591Z,25.17
2024-04-21T05:01:01.552Z,25.18
2024-04-21T05:03:29.573Z,25.22
2024-04-21T05:05:57.610Z,25.26
2024-04-21T05:08:26.441Z,25.33
2024-04-21T05:10:54.320Z,25.40
2024-04-21T05:13:22.273Z,25.46
2024-04-21T05:15:50.404Z,25.52
2024-04-21T05:18:18.574Z,25.57
2024-04-21T05:20:46.705Z,25.62
2024-04-21T05:23:14.854Z,25.65
2024-04-21T05:25:42.867Z,25.69
2024-04-21T05:28:10.919Z,25.67
2024-04-21T05:30:38.991Z,25.61
2024-04-21T05:33:06.999Z,25.55
2024-04-21T05:35:34.911Z,25.56
2024-04-21T05:38:02.969Z,25.57
2024-04-21T05:40:31.038Z,25.60
2024-04-21T05:42:59.001Z,25.65
2024-04-21T05:45:27.069Z,25.71
2024-04-21T05:47:56.087Z,25.77
2024-04-21T05:50:24.140Z,25.82
2024-04-21T05:52:52.197Z,25.82
2024-04-21T05:55:20.165Z,25.80
2024-04-21T05:57:48.912Z,25.77
2024-04-21T06:00:17.123Z,25.74
2024-04-21T06:02:45.115Z,25.70
2024-04-21T06:05:13.360Z,25.67
2024-04-21T06:07:41.422Z,25.63
2024-04-21T06:10:09.515Z,25.61
2024-04-21T06:12:38.111Z,25.59
2024-04-21T06:15:06.383Z,25.59
2024-04-21T06:17:34.362Z,25.60
2024-04-21T06:20:04.772Z,25.60
2024-04-21T06:22:32.758Z,25.57
2024-04-21T06:25:00.719Z,25.55
2024-04-21T06:27:30.684Z,25.55
2024-04-21T06:29:58.750Z,25.56
2024-04-21T06:32:26.922Z,25.58
2024-04-21T06:34:54.863Z,25.62
2024-04-21T06:37:22.946Z,25.65
2024-04-21T06:39:50.964Z,25.69
2024-04-21T06:42:18.990Z,25.69
2024-04-21T06:44:47.139Z,25.71
2024-04-21T06:47:15.215Z,25.71
2024-04-21T06:49:43.310Z,25.73
2024-04-21T06:52:11.419Z,25.73
2024-04-21T06:54:40.497Z,25.74
2024-04-21T06:57:08.523Z,25.76
2024-04-21T06:59:36.511Z,25.76
2024-04-21T07:02:04.654Z,25.77
2024-04-21T07:04:33.560Z,25.77
2024-04-21T07:07:01.671Z,25.78
2024-04-21T07:09:29.642Z,25.77
2024-04-21T07:11:57.649Z,25.76
2024-04-21T07:14:25.559Z,25.75
2024-04-21T07:16:53.635Z,25.75
2024-04-21T07:19:22.333Z,25.74
2024-04-21T07:21:50.272Z,25.73
2024-04-21T07:24:18.173Z,25.72
2024-04-21T07:26:46.102Z,25.71
2024-04-21T07:29:14.084Z,25.70
2024-04-21T07:31:42.034Z,25.69
2024-04-21T07:34:10.482Z,25.67
2024-04-21T07:36:38.599Z,25.66
2024-04-21T07:39:06.615Z,25.64
2024-04-21T07:41:35.588Z,25.63
2024-04-21T07:44:03.585Z,25.61
2024-04-21T07:46:31.745Z,25.60
2024-04-21T07:49:00.072Z,25.58
2024-04-21T07:51:28.087Z,25.57
2024-04-21T07:53:56.063Z,25.56
2024-04-21T07:56:23.969Z,25.54
2024-04-21T07:58:51.994Z,25.53
2024-04-21T08:01:19.973Z,25.50
2024-04-21T08:03:48.021Z,25.49
2024-04-21T08:06:16.169Z,25.47
2024-04-21T08:08:46.900Z,25.45
2024-04-21T08:11:16.099Z,25.44
2024-04-21T08:13:44.237Z,25.42
2024-04-21T08:16:12.442Z,25.39
2024-04-21T08:18:40.675Z,25.37
2024-04-21T08:21:08.707Z,25.35
2024-04-21T08:23:36.805Z,25.31
2024-04-21T08:26:04.970Z,25.27
2024-04-21T08:28:32.972Z,25.24
2024-04-21T08:31:01.051Z,25.22
2024-04-21T08:33:29.132Z,25.21
2024-04-21T08:35:58.552Z,25.20
2024-04-21T08:38:28.580Z,25.20
2024-04-21T08:40:56.622Z,25.18
2024-04-21T08:43:25.225Z,25.17
2024-04-21T08:45:54.524Z,25.16
2024-04-21T08:48:22.918Z,25.15
2024-04-21T08:50:51.229Z,25.15
2024-04-21T08:53:19.324Z,25.13
2024-04-21T08:55:48.713Z,25.12
2024-04-21T08:58:17.561Z,25.11
2024-04-21T09:00:49.137Z,25.11
2024-04-21T09:03:17.253Z,25.09
2024-04-21T09:05:50.903Z,25.09
2024-04-21T09:08:18.893Z,25.09
2024-04-21T09:10:46.999Z,25.08
2024-04-21T09:13:15.545Z,25.06
2024-04-21T09:15:43.461Z,25.06
2024-04-21T09:18:11.455Z,25.04
2024-04-21T09:20:39.445Z,25.04
2024-04-21T09:23:10.408Z,25.04
2024-04-21T09:25:38.408Z,25.04
2024-04-21T09:28:06.804Z,25.03
2024-04-21T09:30:34.829Z,25.02
2024-04-21T09:33:04.788Z,25.01
2024-04-21T09:35:32.878Z,24.99
2024-04-21T09:38:00.781Z,24.98
2024-04-21T09:40:28.934Z,24.99
2024-04-21T09:42:57.448Z,25.00
2024-04-21T09:45:25.793Z,24.99
2024-04-21T09:47:53.947Z,24.99
2024-04-21T09:50:22.512Z,24.98
2024-04-21T09:52:51.714Z,24.96
2024-04-21T09:55:20.062Z,24.96
2024-04-21T09:57:51.238Z,24.96
2024-04-21T10:00:22.239Z,24.97
2024-04-21T10:02:50.477Z,24.98
2024-04-21T10:05:19.438Z,24.97
2024-04-21T10:07:47.994Z,24.95
2024-04-21T10:10:21.456Z,24.95
2024-04-21T10:12:49.488Z,24.94
2024-04-21T10:15:21.174Z,24.94
2024-04-21T10:17:56.201Z,24.94
2024-04-21T10:20:34.900Z,24.93
2024-04-21T10:23:11.065Z,24.93
2024-04-21T10:25:40.781Z,24.92
2024-04-21T10:28:10.191Z,24.91
2024-04-21T10:30:38.402Z,24.91
2024-04-21T10:33:11.500Z,24.90
2024-04-21T10:35:43.051Z,24.90
2024-04-21T10:38:13.111Z,24.89
2024-04-21T10:40:42.004Z,24.88
2024-04-21T10:43:09.968Z,24.88
2024-04-21T10:45:39.751Z,24.90
2024-04-21T10:48:08.538Z,24.90
2024-04-21T10:50:37.794Z,24.90
2024-04-21T10:53:06.776Z,24.91
2024-04-21T10:55:35.553Z,24.90
2024-04-21T10:58:05.047Z,24.89
2024-04-21T11:00:37.875Z,24.89
2024-04-21T11:03:06.751Z,24.89
2024-04-21T11:06:02.194Z,24.89
2024-04-21T11:08:30.167Z,24.89
2024-04-21T11:10:58.243Z,24.90
2024-04-21T11:13:26.403Z,24.90
2024-04-21T11:15:54.636Z,24.92
2024-04-21T11:18:22.740Z,24.92
2024-04-21T11:20:51.060Z,24.90
2024-04-21T11:23:18.956Z,24.89
2024-04-21T11:25:52.858Z,24.88
2024-04-21T11:28:23.534Z,24.87
2024-04-21T11:31:04.987Z,24.87
2024-04-21T11:33:34.097Z,24.87
2024-04-21T11:36:03.318Z,24.85
2024-04-21T11:38:31.498Z,24.85
2024-04-21T11:40:59.416Z,24.85
2024-04-21T11:43:30.776Z,24.85
2024-04-21T11:46:05.038Z,24.83
2024-04-21T11:48:33.450Z,24.83
2024-04-21T11:51:01.796Z,24.81
2024-04-21T11:53:29.850Z,24.79
2024-04-21T11:55:58.431Z,24.80
2024-04-21T11:58:27.595Z,24.79
2024-04-21T12:00:55.837Z,24.78
2024-04-21T12:03:23.845Z,24.77
2024-04-21T12:05:51.867Z,24.77
2024-04-21T12:08:20.018Z,24.75
2024-04-21T12:10:48.002Z,24.74
2024-04-21T12:13:16.211Z,24.73
2024-04-21T12:15:44.690Z,24.72
2024-04-21T12:18:12.758Z,24.72
2024-04-21T12:20:40.599Z,24.71
2024-04-21T12:23:09.648Z,24.70
2024-04-21T12:25:38.671Z,24.68
2024-04-21T12:28:07.294Z,24.68
2024-04-21T12:30:39.264Z,24.67
2024-04-21T12:33:08.738Z,24.67
2024-04-21T12:35:36.965Z,24.66
2024-04-21T12:38:04.930Z,24.65
2024-04-21T12:40:32.949Z,24.64
2024-04-21T12:43:00.959Z,24.63
2024-04-21T12:45:29.077Z,24.62
2024-04-21T12:47:56.969Z,24.61
2024-04-21T12:50:25.108Z,24.61
2024-04-21T12:52:53.129Z,24.60
2024-04-21T12:55:21.203Z,24.58
2024-04-21T12:57:49.274Z,24.57
2024-04-21T13:00:17.327Z,24.56
2024-04-21T13:02:45.428Z,24.55
2024-04-21T13:05:15.250Z,24.55
2024-04-21T13:07:43.202Z,24.54
2024-04-21T13:10:11.309Z,24.53
2024-04-21T13:12:39.313Z,24.52
2024-04-21T13:15:07.612Z,24.50
2024-04-21T13:17:35.588Z,24.50
2024-04-21T13:20:03.947Z,24.49
2024-04-21T13:22:32.076Z,24.48
2024-04-21T13:25:00.848Z,24.47
2024-04-21T13:27:29.867Z,24.46
2024-04-21T13:29:57.834Z,24.45
2024-04-21T13:32:25.949Z,24.43
2024-04-21T13:34:57.094Z,24.43
2024-04-21T13:37:26.327Z,24.41
2024-04-21T13:39:54.296Z,24.40
2024-04-21T13:42:22.332Z,24.39
2024-04-21T13:44:50.374Z,24.38
2024-04-21T13:47:18.433Z,24.37
2024-04-21T13:49:46.477Z,24.36
2024-04-21T13:52:14.529Z,24.35
2024-04-21T13:54:44.027Z,24.34
2024-04-21T13:57:11.935Z,24.34
2024-04-21T13:59:43.046Z,24.33
2024-04-21T14:02:12.602Z,24.32
2024-04-21T14:04:40.670Z,24.31
2024-04-21T14:07:08.762Z,24.31
2024-04-21T14:09:37.531Z,24.30
2024-04-21T14:12:05.701Z,24.30
2024-04-21T14:14:33.593Z,24.29
2024-04-21T14:17:01.555Z,24.27
2024-04-21T14:19:29.576Z,24.27
2024-04-21T14:21:57.708Z,24.27
2024-04-21T14:24:25.668Z,24.28
2024-04-21T14:26:53.622Z,24.27
2024-04-21T14:29:21.610Z,24.26
2024-04-21T14:31:49.576Z,24.26
2024-04-21T14:34:17.707Z,24.25
2024-04-21T14:36:46.005Z,24.25
2024-04-21T14:39:14.019Z,24.25
2024-04-21T14:41:43.239Z,24.25
2024-04-21T14:44:11.321Z,24.25
2024-04-21T14:46:41.554Z,24.26
2024-04-21T14:49:09.582Z,24.26
2024-04-21T14:51:38.638Z,24.25
2024-04-21T14:54:06.539Z,24.26
2024-04-21T14:56:34.625Z,24.24
2024-04-21T14:59:03.128Z,24.26
2024-04-21T15:01:31.118Z,24.25
2024-04-21T15:03:59.647Z,24.25
2024-04-21T15:06:27.617Z,24.26
2024-04-21T15:09:01.213Z,24.25
2024-04-21T15:11:30.057Z,24.25
2024-04-21T15:13:58.960Z,24.23
2024-04-21T15:16:28.696Z,24.23
2024-04-21T15:18:56.706Z,24.23
2024-04-21T15:21:24.670Z,24.22
2024-04-21T15:23:52.674Z,24.22
2024-04-21T15:26:20.668Z,24.22
2024-04-21T15:28:49.337Z,24.21
2024-04-21T15:31:17.723Z,24.22
2024-04-21T15:33:45.916Z,24.21
2024-04-21T15:36:14.480Z,24.21
2024-04-21T15:38:42.340Z,24.20
2024-04-21T15:41:10.320Z,24.19
2024-04-21T15:43:38.444Z,24.19
2024-04-21T15:46:06.435Z,24.19
2024-04-21T15:48:34.655Z,24.18
2024-04-21T15:51:06.651Z,24.17
2024-04-21T15:53:34.820Z,24.17
2024-04-21T15:56:03.799Z,24.16
2024-04-21T15:58:32.123Z,24.16
2024-04-21T16:01:00.255Z,24.15
2024-04-21T16:03:28.262Z,24.14
2024-04-21T16:05:56.313Z,24.14
2024-04-21T16:08:24.781Z,24.13
2024-04-21T16:10:52.803Z,24.13
2024-04-21T16:13:21.890Z,24.13
2024-04-21T16:15:49.792Z,24.12
2024-04-21T16:18:17.840Z,24.12
2024-04-21T16:20:45.870Z,24.11
2024-04-21T16:23:13.924Z,24.11
2024-04-21T16:25:41.837Z,24.10
2024-04-21T16:28:10.156Z,24.11
2024-04-21T16:30:38.192Z,24.09
2024-04-21T16:33:06.457Z,24.09
2024-04-21T16:35:34.972Z,24.09
2024-04-21T16:38:03.177Z,24.08
2024-04-21T16:40:32.070Z,24.07
2024-04-21T16:43:00.399Z,24.07
2024-04-21T16:45:28.696Z,24.07
2024-04-21T16:47:56.772Z,24.07
2024-04-21T16:50:25.122Z,24.07
2024-04-21T16:52:53.356Z,24.07
2024-04-21T16:55:21.699Z,24.06
2024-04-21T16:57:58.535Z,24.05
2024-04-21T17:00:26.826Z,24.03
2024-04-21T17:02:55.076Z,24.03
2024-04-21T17:05:23.334Z,24.03
2024-04-21T17:08:42.213Z,24.03
2024-04-21T17:11:10.491Z,24.02
2024-04-21T17:13:41.665Z,24.00
2024-04-21T17:16:12.973Z,24.00
2024-04-21T17:18:43.091Z,24.00
2024-04-21T17:21:11.303Z,23.99
2024-04-21T17:23:39.252Z,23.99
2024-04-21T17:26:07.109Z,23.99
2024-04-21T17:28:35.186Z,23.97
2024-04-21T17:31:03.504Z,23.98
2024-04-21T17:33:32.231Z,23.98
2024-04-21T17:36:00.477Z,23.98
2024-04-21T17:38:28.489Z,23.97
2024-04-21T17:40:57.395Z,23.97
2024-04-21T17:43:25.358Z,23.96
2024-04-21T17:45:53.275Z,23.96
2024-04-21T17:48:21.159Z,23.95
2024-04-21T17:50:49.306Z,23.95
2024-04-21T17:53:17.232Z,23.94
2024-04-21T17:55:45.147Z,23.94
2024-04-21T17:58:13.420Z,23.94
2024-04-21T18:00:41.529Z,23.93
2024-04-21T18:03:09.641Z,23.94
2024-04-21T18:05:38.780Z,23.92
2024-04-21T18:08:06.739Z,23.93
2024-04-21T18:10:34.890Z,23.92
2024-04-21T18:13:03.832Z,23.92
2024-04-21T18:15:31.979Z,23.92
2024-04-21T18:18:00.246Z,23.91
2024-04-21T18:20:28.281Z,23.91
2024-04-21T18:22:56.150Z,23.90
2024-04-21T18:25:24.090Z,23.90
2024-04-21T18:27:52.058Z,23.90
2024-04-21T18:30:20.079Z,23.90
2024-04-21T18:32:48.212Z,23.88
2024-04-21T18:35:16.310Z,23.89
2024-04-21T18:37:44.307Z,23.88
2024-04-21T18:40:12.415Z,23.88
2024-04-21T18:42:40.541Z,23.88
2024-04-21T18:45:10.738Z,23.87
2024-04-21T18:47:38.721Z,23.87
2024-04-21T18:50:07.492Z,23.86
2024-04-21T18:52:37.573Z,23.85
2024-04-21T18:55:05.815Z,23.86
2024-04-21T18:57:33.898Z,23.85
2024-04-21T19:00:01.904Z,23.86
2024-04-21T19:02:29.986Z,23.85
2024-04-21T19:04:57.898Z,23.85
2024-04-21T19:07:25.795Z,23.84
2024-04-21T19:09:54.139Z,23.83
2024-04-21T19:12:22.385Z,23.83
2024-04-21T19:14:50.928Z,23.83
2024-04-21T19:17:19.273Z,23.83
2024-04-21T19:19:47.574Z,23.83
2024-04-21T19:22:15.827Z,23.82
2024-04-21T19:24:43.711Z,23.82
2024-04-21T19:27:11.653Z,23.82
2024-04-21T19:29:39.729Z,23.82
2024-04-21T19:32:07.921Z,23.82
2024-04-21T19:34:36.014Z,23.81
2024-04-21T19:37:04.284Z,23.81
2024-04-21T19:39:32.227Z,23.80
2024-04-21T19:42:00.183Z,23.80
2024-04-21T19:44:28.134Z,23.81
2024-04-21T19:46:56.135Z,23.79
2024-04-21T19:49:24.116Z,23.79
2024-04-21T19:51:52.170Z,23.79
2024-04-21T19:54:26.886Z,23.79
2024-04-21T19:56:59.064Z,23.78
2024-04-21T19:59:27.124Z,23.77
2024-04-21T20:01:55.413Z,23.77
2024-04-21T20:04:23.999Z,23.77
2024-04-21T20:06:52.067Z,23.77
2024-04-21T20:09:20.128Z,23.77
2024-04-21T20:11:48.063Z,23.77
2024-04-21T20:14:16.056Z,23.76
2024-04-21T20:17:02.454Z,23.76
2024-04-21T20:19:30.502Z,23.76
2024-04-21T20:21:58.466Z,23.75
2024-04-21T20:24:26.425Z,23.74
2024-04-21T20:26:54.453Z,23.74
2024-04-21T20:29:22.410Z,23.74
2024-04-21T20:31:51.574Z,23.74
2024-04-21T20:34:19.653Z,23.74
2024-04-21T20:36:47.636Z,23.74
2024-04-21T20:39:15.620Z,23.73
2024-04-21T20:41:43.498Z,23.72
2024-04-21T20:44:11.526Z,23.73
2024-04-21T20:46:39.515Z,23.73
2024-04-21T20:49:07.748Z,23.73
2024-04-21T20:51:35.794Z,23.73
2024-04-21T20:54:03.971Z,23.72
2024-04-21T20:56:31.988Z,23.72
2024-04-21T20:58:59.952Z,23.72
2024-04-21T21:01:28.152Z,23.72
2024-04-21T21:03:56.197Z,23.71
2024-04-21T21:06:24.241Z,23.70
2024-04-21T21:08:52.097Z,23.70
2024-04-21T21:11:20.120Z,23.71
2024-04-21T21:13:48.096Z,23.71
2024-04-21T21:16:16.135Z,23.70
2024-04-21T21:18:44.512Z,23.69
2024-04-21T21:21:12.497Z,23.69
2024-04-21T21:23:40.452Z,23.69
2024-04-21T21:26:08.501Z,23.69
2024-04-21T21:28:36.464Z,23.68
2024-04-21T21:31:06.509Z,23.69
2024-04-21T21:33:34.482Z,23.68
2024-04-21T21:36:02.587Z,23.68
2024-04-21T21:38:32.293Z,23.67
2024-04-21T21:41:00.247Z,23.67
2024-04-21T21:43:28.172Z,23.67
2024-04-21T21:45:56.314Z,23.67
2024-04-21T21:48:24.427Z,23.67
2024-04-21T21:50:52.433Z,23.67
2024-04-21T21:53:20.460Z,23.66
2024-04-21T21:55:48.406Z,23.66
2024-04-21T21:58:16.560Z,23.66
2024-04-21T22:00:44.663Z,23.66
2024-04-21T22:03:12.598Z,23.65
2024-04-21T22:05:40.571Z,23.66
2024-04-21T22:08:08.655Z,23.66
2024-04-21T22:10:36.529Z,23.65
2024-04-21T22:13:04.855Z,23.65
2024-04-21T22:15:32.904Z,23.65
2024-04-21T22:18:00.972Z,23.64
2024-04-21T22:20:28.965Z,23.63
2024-04-21T22:22:56.974Z,23.63
2024-04-21T22:25:25.013Z,23.62
2024-04-21T22:27:53.066Z,23.62
2024-04-21T22:30:21.121Z,23.62
2024-04-21T22:32:49.539Z,23.61
2024-04-21T22:35:17.736Z,23.60
2024-04-21T22:37:46.301Z,23.60
2024-04-21T22:40:14.358Z,23.60
2024-04-21T22:42:43.647Z,23.60
2024-04-21T22:45:11.940Z,23.60
2024-04-21T22:47:40.281Z,23.60
2024-04-21T22:50:08.515Z,23.60
2024-04-21T22:52:36.886Z,23.59
2024-04-21T22:55:05.253Z,23.58
2024-04-21T22:57:33.231Z,23.58
2024-04-21T23:00:01.285Z,23.59
2024-04-21T23:02:29.468Z,23.58
2024-04-21T23:04:57.545Z,23.58
2024-04-21T23:07:25.782Z,23.57
2024-04-21T23:09:53.804Z,23.58
2024-04-21T23:12:21.891Z,23.57
2024-04-21T23:14:49.795Z,23.57
2024-04-21T23:17:17.788Z,23.56
2024-04-21T23:19:45.873Z,23.56
2024-04-21T23:22:14.015Z,23.56
2024-04-21T23:24:42.014Z,23.56
2024-04-21T23:27:10.044Z,23.56
2024-04-21T23:29:38.022Z,23.56
2024-04-21T23:32:06.292Z,23.55
2024-04-21T23:34:34.381Z,23.55
2024-04-21T23:37:02.363Z,23.56
2024-04-21T23:39:30.280Z,23.55
2024-04-21T23:41:58.375Z,23.54
2024-04-21T23:44:26.304Z,23.55
2024-04-21T23:46:54.320Z,23.55
2024-04-21T23:49:22.430Z,23.54
2024-04-21T23:51:50.455Z,23.54
2024-04-21T23:54:18.483Z,23.54
2024-04-21T23:56:46.369Z,23.55
2024-04-21T23:59:14.338Z,23.54
